Time;durP1;ratioP1;P1;durP2;ratioP2;P2;SDS_P1;SDS_P2;PMS_P1;PMS_P2;Temp;Humidity;BMP_temperature;BMP_pressure;BME280_temperature;BME280_humidity;BME280_pressure;Samples;Min_cycle;Max_cycle;Signal;HPM_P1;HPM_P2
2022/11/29 00:01:02;;;;;;;51.20;25.77;;;9.70;99.90;;;;;;5012717;28;20385;-72
2022/11/29 00:03:28;;;;;;;45.05;25.95;;;9.70;99.90;;;;;;5013436;28;20727;-71
2022/11/29 00:05:54;;;;;;;47.05;24.92;;;9.80;99.90;;;;;;5014035;28;20380;-72
2022/11/29 00:08:21;;;;;;;44.70;24.88;;;9.80;99.90;;;;;;5031480;28;20898;-72
2022/11/29 00:10:47;;;;;;;50.00;26.45;;;9.70;99.90;;;;;;5015616;28;20392;-72
2022/11/29 00:13:13;;;;;;;47.35;25.42;;;9.70;99.90;;;;;;5028910;28;20385;-73
2022/11/29 00:15:39;;;;;;;50.75;27.08;;;9.70;99.90;;;;;;5013699;28;20891;-72
2022/11/29 00:18:06;;;;;;;47.50;25.90;;;9.70;99.90;;;;;;5012840;28;20480;-72
2022/11/29 00:20:32;;;;;;;52.10;27.07;;;9.60;99.90;;;;;;5013004;28;20401;-72
2022/11/29 00:22:58;;;;;;;49.20;28.17;;;9.60;99.90;;;;;;5011616;28;20420;-72
2022/11/29 00:25:24;;;;;;;58.15;28.70;;;9.60;99.90;;;;;;5012384;28;20442;-73
2022/11/29 00:27:50;;;;;;;51.40;27.30;;;9.60;99.90;;;;;;5012154;28;20392;-72
2022/11/29 00:30:16;;;;;;;63.17;29.00;;;9.60;99.90;;;;;;5012127;28;20388;-71
2022/11/29 00:32:42;;;;;;;56.33;29.92;;;9.60;99.90;;;;;;5012139;28;20412;-72
2022/11/29 00:35:08;;;;;;;52.20;29.23;;;9.50;99.90;;;;;;5013374;28;20435;-72
2022/11/29 00:37:34;;;;;;;55.30;30.98;;;9.60;99.90;;;;;;5016434;28;20887;-72
2022/11/29 00:39:59;;;;;;;56.93;30.17;;;9.60;99.90;;;;;;5014951;28;20502;-72
2022/11/29 00:42:25;;;;;;;57.10;29.90;;;9.60;99.90;;;;;;5011743;28;20401;-72
2022/11/29 00:44:50;;;;;;;58.13;29.73;;;9.60;99.90;;;;;;5012359;28;20476;-72
2022/11/29 00:47:16;;;;;;;58.70;30.20;;;9.60;99.90;;;;;;5011998;28;20391;-72
2022/11/29 00:49:42;;;;;;;63.50;30.52;;;9.70;99.90;;;;;;5011896;28;20389;-72
2022/11/29 00:52:07;;;;;;;55.60;30.20;;;9.60;99.90;;;;;;5011051;28;20380;-72
2022/11/29 00:54:33;;;;;;;58.13;30.80;;;9.60;99.90;;;;;;5011761;28;20876;-73
2022/11/29 00:56:58;;;;;;;55.13;31.08;;;9.60;99.90;;;;;;5011916;28;20420;-71
2022/11/29 00:59:24;;;;;;;62.15;31.50;;;9.50;99.90;;;;;;5011667;28;20419;-71
2022/11/29 01:01:49;;;;;;;64.97;33.15;;;9.50;99.90;;;;;;5011476;28;20389;-74
2022/11/29 01:04:15;;;;;;;71.97;31.98;;;9.50;99.90;;;;;;5010543;28;20436;-71
2022/11/29 01:06:41;;;;;;;60.10;33.22;;;9.50;99.90;;;;;;5010639;28;20392;-71
2022/11/29 01:09:06;;;;;;;69.27;33.93;;;9.50;99.90;;;;;;5011444;28;20727;-72
2022/11/29 01:11:32;;;;;;;68.83;31.83;;;9.60;99.90;;;;;;5010856;28;20389;-72
2022/11/29 01:13:59;;;;;;;56.60;31.40;;;9.60;99.90;;;;;;5011177;28;20435;-71
2022/11/29 01:16:26;;;;;;;72.85;34.08;;;9.60;99.90;;;;;;5011594;28;20458;-71
2022/11/29 01:18:51;;;;;;;67.28;33.83;;;9.70;99.90;;;;;;5011250;28;20925;-71
2022/11/29 01:21:19;;;;;;;66.03;32.93;;;9.60;99.90;;;;;;5010772;28;20472;-71
2022/11/29 01:23:46;;;;;;;61.10;32.13;;;9.70;99.90;;;;;;5009796;28;20380;-71
2022/11/29 01:26:21;;;;;;;70.03;33.35;;;9.60;99.90;;;;;;5013583;28;20389;-72
2022/11/29 01:28:49;;;;;;;65.07;33.20;;;9.60;99.90;;;;;;5019981;28;20392;-72
2022/11/29 01:31:18;;;;;;;67.75;34.20;;;9.60;99.90;;;;;;5011754;28;20392;-73
2022/11/29 01:33:44;;;;;;;68.60;34.50;;;9.60;99.90;;;;;;5012030;28;20401;-72
2022/11/29 01:36:12;;;;;;;74.38;34.20;;;9.60;99.90;;;;;;5010913;28;20877;-72
2022/11/29 01:38:38;;;;;;;80.45;37.33;;;9.50;99.90;;;;;;5010810;28;20392;-70
2022/11/29 01:41:09;;;;;;;69.40;35.65;;;9.60;99.90;;;;;;5010597;28;20468;-72
2022/11/29 01:43:53;;;;;;;74.78;35.00;;;9.50;99.90;;;;;;5011219;28;20389;-72
2022/11/29 01:46:19;;;;;;;68.97;36.08;;;9.70;99.90;;;;;;5011117;28;20383;-70
2022/11/29 01:48:45;;;;;;;85.43;38.85;;;9.60;99.90;;;;;;5011145;28;20773;-70
2022/11/29 01:51:10;;;;;;;80.18;38.35;;;9.50;99.90;;;;;;5009128;28;20382;-72
2022/11/29 01:53:37;;;;;;;83.93;38.40;;;9.50;99.90;;;;;;5011261;28;20393;-72
2022/11/29 01:56:04;;;;;;;82.30;39.88;;;9.60;99.90;;;;;;5011901;28;20397;-71
2022/11/29 01:58:31;;;;;;;83.38;39.03;;;9.60;99.90;;;;;;5010934;28;20462;-71
2022/11/29 02:00:57;;;;;;;91.65;39.70;;;9.50;99.90;;;;;;5010142;28;20400;-71
2022/11/29 02:03:23;;;;;;;82.38;39.53;;;9.50;99.90;;;;;;5012542;28;20770;-71
2022/11/29 02:05:51;;;;;;;93.10;41.23;;;9.60;99.90;;;;;;5023108;28;20385;-73
2022/11/29 02:08:35;;;;;;;86.97;40.67;;;9.50;99.90;;;;;;5045891;28;20365;-74
2022/11/29 02:11:10;;;;;;;93.57;40.72;;;9.50;99.90;;;;;;5014468;28;20411;-74
2022/11/29 02:14:17;;;;;;;95.70;42.55;;;9.50;99.90;;;;;;5014167;28;20400;-71
2022/11/29 02:17:09;;;;;;;91.55;43.00;;;9.50;99.90;;;;;;5014387;28;20384;-71
2022/11/29 02:20:12;;;;;;;87.35;41.08;;;9.50;99.90;;;;;;5014809;28;20452;-71
2022/11/29 02:22:50;;;;;;;90.22;41.13;;;9.80;99.90;;;;;;5014955;28;20387;-71
2022/11/29 02:26:16;;;;;;;81.90;41.15;;;10.00;99.90;;;;;;5020250;28;20761;-73
2022/11/29 02:29:02;;;;;;;100.38;44.28;;;10.00;99.90;;;;;;5023031;28;20397;-71
2022/11/29 02:31:52;;;;;;;101.47;43.90;;;9.90;99.90;;;;;;5020173;28;20860;-73
2022/11/29 02:34:31;;;;;;;100.85;43.67;;;9.90;99.90;;;;;;5019442;28;20398;-74
2022/11/29 02:37:10;;;;;;;107.28;45.85;;;9.90;99.90;;;;;;5019560;28;20858;-73
2022/11/29 02:39:45;;;;;;;106.70;45.08;;;9.80;99.90;;;;;;5021865;28;20916;-74
2022/11/29 02:42:25;;;;;;;108.70;46.15;;;9.80;99.90;;;;;;5018936;28;20380;-73
2022/11/29 02:45:01;;;;;;;112.18;45.28;;;9.70;99.90;;;;;;5019654;28;20591;-73
2022/11/29 02:48:02;;;;;;;105.45;47.35;;;9.70;99.90;;;;;;5016783;28;20898;-72
2022/11/29 02:50:42;;;;;;;111.22;47.13;;;9.70;99.90;;;;;;4993786;28;20395;-73
2022/11/29 02:53:17;;;;;;;103.85;46.60;;;9.70;99.90;;;;;;5015963;28;20392;-72
2022/11/29 02:56:11;;;;;;;109.45;46.38;;;9.70;99.90;;;;;;5018743;28;20391;-72
2022/11/29 02:59:08;;;;;;;113.18;47.95;;;9.70;99.90;;;;;;5014102;28;20377;-73
2022/11/29 03:01:46;;;;;;;102.30;44.43;;;9.70;99.90;;;;;;5013353;28;20408;-72
2022/11/29 03:04:32;;;;;;;106.30;46.53;;;9.70;99.90;;;;;;5011947;28;20389;-73
2022/11/29 03:07:11;;;;;;;118.90;49.53;;;9.70;99.90;;;;;;5013680;28;20384;-73
2022/11/29 03:09:44;;;;;;;116.18;48.97;;;9.70;99.90;;;;;;5013766;28;20474;-73
2022/11/29 03:12:17;;;;;;;112.05;47.78;;;9.70;99.90;;;;;;5013010;28;20423;-72
2022/11/29 03:14:58;;;;;;;115.85;49.60;;;9.80;99.90;;;;;;5013867;28;20397;-73
2022/11/29 03:17:30;;;;;;;119.72;49.53;;;9.80;99.90;;;;;;5014196;28;20471;-73
2022/11/29 03:20:42;;;;;;;119.43;50.30;;;9.80;99.90;;;;;;5020865;28;20569;-72
2022/11/29 03:23:27;;;;;;;115.68;47.80;;;9.70;99.90;;;;;;4972051;28;20881;-72
2022/11/29 03:26:25;;;;;;;123.75;49.50;;;9.80;99.90;;;;;;5012315;28;20400;-73
2022/11/29 03:29:11;;;;;;;117.75;47.92;;;9.80;99.90;;;;;;5013674;28;20392;-72
2022/11/29 03:31:47;;;;;;;120.32;49.97;;;9.70;99.90;;;;;;5011116;28;20403;-71
2022/11/29 03:34:43;;;;;;;124.75;50.78;;;9.80;99.90;;;;;;5012127;28;20382;-73
2022/11/29 03:37:12;;;;;;;130.88;50.97;;;9.80;99.90;;;;;;5013344;28;20483;-72
2022/11/29 03:39:52;;;;;;;135.52;52.10;;;9.80;99.90;;;;;;5013417;28;20520;-73
2022/11/29 03:42:29;;;;;;;134.82;52.40;;;9.80;99.90;;;;;;5012383;28;20526;-72
2022/11/29 03:45:02;;;;;;;138.70;53.70;;;9.80;99.90;;;;;;5012968;28;20388;-72
2022/11/29 03:47:38;;;;;;;147.98;53.58;;;9.70;99.90;;;;;;5013147;28;20754;-72
2022/11/29 03:50:13;;;;;;;143.38;55.85;;;9.70;99.90;;;;;;5012956;28;20865;-73
2022/11/29 03:52:49;;;;;;;148.65;52.47;;;9.70;99.90;;;;;;5012515;28;20475;-72
2022/11/29 03:55:45;;;;;;;161.65;54.55;;;9.70;99.90;;;;;;5012824;28;20412;-73
2022/11/29 03:58:33;;;;;;;159.70;55.15;;;9.60;99.90;;;;;;5011098;28;20401;-72
2022/11/29 04:01:37;;;;;;;146.75;54.25;;;9.60;99.90;;;;;;5011954;28;20411;-71
2022/11/29 04:04:34;;;;;;;169.57;55.13;;;9.60;99.90;;;;;;5012481;28;20791;-72
2022/11/29 04:07:02;;;;;;;169.03;54.20;;;9.60;99.90;;;;;;5011367;28;20754;-72
2022/11/29 04:09:55;;;;;;;186.25;58.88;;;9.60;99.90;;;;;;5011391;28;20493;-73
2022/11/29 04:12:43;;;;;;;179.63;58.78;;;9.60;99.90;;;;;;5011927;28;20857;-73
2022/11/29 04:15:38;;;;;;;184.88;56.40;;;9.60;99.90;;;;;;5012348;28;20384;-72
2022/11/29 04:18:03;;;;;;;182.50;59.03;;;9.60;99.90;;;;;;5012624;28;20464;-71
2022/11/29 04:20:43;;;;;;;175.23;56.85;;;9.60;99.90;;;;;;5012601;28;20409;-72
2022/11/29 04:23:33;;;;;;;188.85;56.38;;;9.60;99.90;;;;;;5012208;28;20381;-72
2022/11/29 04:26:22;;;;;;;189.80;56.47;;;9.60;99.90;;;;;;5012784;28;20388;-73
2022/11/29 04:29:11;;;;;;;192.25;58.03;;;9.50;99.90;;;;;;5012703;28;20385;-72
2022/11/29 04:31:55;;;;;;;189.85;58.10;;;9.50;99.90;;;;;;5010908;28;20396;-72
2022/11/29 04:34:42;;;;;;;203.35;61.53;;;9.50;99.90;;;;;;5011850;28;20435;-71
2022/11/29 04:37:29;;;;;;;185.38;58.65;;;9.60;99.90;;;;;;5012414;28;20381;-71
2022/11/29 04:40:08;;;;;;;202.52;60.72;;;9.50;99.90;;;;;;5012516;28;20465;-73
2022/11/29 04:42:45;;;;;;;200.63;63.45;;;9.50;99.90;;;;;;5012783;28;20380;-73
2022/11/29 04:45:37;;;;;;;203.90;61.38;;;9.60;99.90;;;;;;5022536;28;20423;-72
2022/11/29 04:48:06;;;;;;;210.20;62.97;;;9.50;99.90;;;;;;5017210;28;20582;-73
2022/11/29 04:50:56;;;;;;;194.97;61.20;;;9.50;99.90;;;;;;5014797;28;20385;-73
2022/11/29 04:53:29;;;;;;;204.95;61.72;;;9.50;99.90;;;;;;5021010;28;20381;-73
2022/11/29 04:56:21;;;;;;;193.10;60.90;;;9.50;99.90;;;;;;5012113;28;20476;-73
2022/11/29 04:59:25;;;;;;;223.65;64.32;;;9.40;99.90;;;;;;5011614;28;20377;-72
2022/11/29 05:02:08;;;;;;;210.30;61.22;;;9.30;99.90;;;;;;5008950;28;20397;-71
2022/11/29 05:04:54;;;;;;;200.50;63.73;;;9.30;99.90;;;;;;5011471;28;20381;-72
2022/11/29 05:07:33;;;;;;;203.02;60.28;;;9.30;99.90;;;;;;5011812;28;20385;-72
2022/11/29 05:10:23;;;;;;;207.38;62.08;;;9.20;99.90;;;;;;5010504;28;20825;-72
2022/11/29 05:13:10;;;;;;;200.35;61.50;;;9.20;99.90;;;;;;5011286;28;20384;-74
2022/11/29 05:16:34;;;;;;;220.20;64.53;;;9.20;99.90;;;;;;5013015;28;20393;-74
2022/11/29 05:19:21;;;;;;;227.05;66.20;;;9.20;99.90;;;;;;4988918;28;20932;-73
2022/11/29 05:22:05;;;;;;;210.77;63.58;;;9.20;99.90;;;;;;5011087;28;20377;-74
2022/11/29 05:25:09;;;;;;;220.70;64.50;;;9.20;99.90;;;;;;5011244;28;20381;-73
2022/11/29 05:27:46;;;;;;;203.38;61.78;;;9.30;99.90;;;;;;5011766;28;20381;-72
2022/11/29 05:30:19;;;;;;;206.00;62.53;;;9.40;99.90;;;;;;5011449;28;20846;-73
2022/11/29 05:32:49;;;;;;;226.63;64.50;;;9.30;99.90;;;;;;5011261;28;20400;-73
2022/11/29 05:36:03;;;;;;;201.48;61.58;;;9.30;99.90;;;;;;5011708;28;20800;-73
2022/11/29 05:38:43;;;;;;;204.48;61.65;;;9.30;99.90;;;;;;4997479;28;20388;-71
2022/11/29 05:41:24;;;;;;;209.45;61.40;;;9.40;99.90;;;;;;5010672;28;20488;-73
2022/11/29 05:43:49;;;;;;;205.88;60.47;;;9.30;99.90;;;;;;5011405;28;20380;-72
2022/11/29 05:46:26;;;;;;;197.25;59.67;;;9.40;99.90;;;;;;5013726;28;20452;-72
2022/11/29 05:49:15;;;;;;;183.30;56.60;;;9.40;99.90;;;;;;5018725;28;20383;-74
2022/11/29 05:51:57;;;;;;;187.40;57.28;;;9.40;99.90;;;;;;5021102;28;20380;-74
2022/11/29 05:54:28;;;;;;;188.10;56.60;;;9.50;99.90;;;;;;5018672;28;20480;-74
2022/11/29 05:57:00;;;;;;;187.05;55.20;;;9.50;99.90;;;;;;5017296;28;20387;-73
2022/11/29 05:59:28;;;;;;;186.85;53.58;;;9.50;99.90;;;;;;5017607;28;20539;-73
2022/11/29 06:02:40;;;;;;;181.18;54.65;;;9.50;99.90;;;;;;5015409;28;20840;-72
2022/11/29 06:05:24;;;;;;;181.07;52.45;;;9.40;99.90;;;;;;4976519;28;20892;-72
2022/11/29 06:08:10;;;;;;;201.63;55.50;;;9.40;99.90;;;;;;5016108;28;20416;-73
2022/11/29 06:10:40;;;;;;;176.52;53.85;;;9.40;99.90;;;;;;5018559;28;20849;-73
2022/11/29 06:13:28;;;;;;;202.55;53.83;;;9.40;99.90;;;;;;5016797;28;20450;-73
2022/11/29 06:16:55;;;;;;;164.73;50.25;;;9.40;99.90;;;;;;5017684;28;20424;-73
2022/11/29 06:19:32;;;;;;;160.30;49.42;;;9.40;99.90;;;;;;4960411;28;20491;-72
2022/11/29 06:21:58;;;;;;;162.88;47.10;;;9.40;99.90;;;;;;5017362;28;20396;-72
2022/11/29 06:24:49;;;;;;;163.65;48.50;;;9.40;99.90;;;;;;5016189;28;20396;-72
2022/11/29 06:27:52;;;;;;;167.73;47.90;;;9.40;99.90;;;;;;5015943;28;20483;-73
2022/11/29 06:30:25;;;;;;;169.40;47.97;;;9.30;99.90;;;;;;5017166;28;20852;-72
2022/11/29 06:33:06;;;;;;;176.13;48.90;;;9.30;99.90;;;;;;5016882;28;20408;-72
2022/11/29 06:35:56;;;;;;;188.30;50.73;;;9.20;99.90;;;;;;5017664;28;20482;-73
2022/11/29 06:38:26;;;;;;;182.05;50.50;;;9.10;99.90;;;;;;5017398;28;20447;-73
2022/11/29 06:40:53;;;;;;;190.30;53.50;;;9.10;99.90;;;;;;5017138;28;20753;-73
2022/11/29 06:43:18;;;;;;;195.90;54.05;;;9.10;99.90;;;;;;5017613;28;20396;-72
2022/11/29 06:46:10;;;;;;;188.10;53.08;;;9.10;99.90;;;;;;5017609;28;20395;-71
2022/11/29 06:48:50;;;;;;;182.80;51.00;;;9.20;99.90;;;;;;4998809;28;20386;-73
2022/11/29 06:51:26;;;;;;;183.63;52.00;;;9.10;99.90;;;;;;5021037;28;20392;-71
2022/11/29 06:54:02;;;;;;;201.63;54.72;;;9.20;99.90;;;;;;5017782;28;20439;-74
2022/11/29 06:56:37;;;;;;;182.80;52.90;;;9.20;99.90;;;;;;5018284;28;20384;-73
2022/11/29 06:59:31;;;;;;;170.23;51.75;;;9.20;99.90;;;;;;5012940;28;20909;-72
2022/11/29 07:02:19;;;;;;;178.85;52.13;;;9.20;99.90;;;;;;5007551;28;20410;-72
2022/11/29 07:05:01;;;;;;;168.23;50.23;;;9.30;99.90;;;;;;5013848;28;20372;-72
2022/11/29 07:07:27;;;;;;;200.60;54.60;;;9.20;99.90;;;;;;5013962;28;20748;-71
2022/11/29 07:09:58;;;;;;;191.30;52.33;;;9.30;99.90;;;;;;5014659;28;20385;-72
2022/11/29 07:12:24;;;;;;;174.48;50.65;;;9.20;99.90;;;;;;5013521;28;20480;-73
2022/11/29 07:14:50;;;;;;;185.93;51.10;;;9.20;99.90;;;;;;5013829;28;20411;-72
2022/11/29 07:17:40;;;;;;;187.55;50.63;;;9.20;99.90;;;;;;5014203;28;20458;-72
2022/11/29 07:20:22;;;;;;;188.15;52.03;;;9.20;99.90;;;;;;5012421;28;20901;-72
2022/11/29 07:22:57;;;;;;;192.30;49.60;;;9.10;99.90;;;;;;5012953;28;20471;-72
2022/11/29 07:26:03;;;;;;;186.77;52.00;;;9.10;99.90;;;;;;5013756;28;20370;-74
2022/11/29 07:28:40;;;;;;;160.82;47.80;;;9.10;99.90;;;;;;5007680;28;20751;-73
2022/11/29 07:31:10;;;;;;;159.70;49.60;;;9.10;99.90;;;;;;5013812;28;20381;-72
2022/11/29 07:33:51;;;;;;;169.30;50.35;;;9.20;99.90;;;;;;5012866;28;20434;-73
2022/11/29 07:36:19;;;;;;;175.20;49.53;;;9.30;99.90;;;;;;5014019;28;20388;-73
2022/11/29 07:39:15;;;;;;;157.77;47.10;;;9.20;99.90;;;;;;5012806;28;20416;-74
2022/11/29 07:41:51;;;;;;;162.80;44.47;;;9.30;99.90;;;;;;5012561;28;20553;-72
2022/11/29 07:44:34;;;;;;;147.35;43.35;;;9.20;99.90;;;;;;5013317;28;20388;-73
2022/11/29 07:46:59;;;;;;;157.87;46.03;;;9.10;99.90;;;;;;5013341;28;20439;-73
2022/11/29 07:49:25;;;;;;;155.53;44.80;;;9.20;99.90;;;;;;5013832;28;20472;-71
2022/11/29 07:51:52;;;;;;;151.70;44.73;;;9.20;99.90;;;;;;5012749;28;20795;-73
2022/11/29 07:54:18;;;;;;;156.93;44.20;;;9.20;99.90;;;;;;5012856;28;20501;-72
2022/11/29 07:56:44;;;;;;;156.70;45.30;;;9.20;99.90;;;;;;5012874;28;20507;-71
2022/11/29 07:59:11;;;;;;;162.90;44.20;;;9.20;99.90;;;;;;5012829;28;20500;-70
2022/11/29 08:01:38;;;;;;;173.90;47.65;;;9.10;99.90;;;;;;5012588;28;20385;-72
2022/11/29 08:04:04;;;;;;;164.52;48.17;;;9.10;99.90;;;;;;5012611;28;20408;-71
2022/11/29 08:06:30;;;;;;;167.13;49.00;;;9.10;99.90;;;;;;5013104;28;20413;-74
2022/11/29 08:08:59;;;;;;;188.45;52.15;;;9.10;99.90;;;;;;5012168;28;20889;-72
2022/11/29 08:11:25;;;;;;;185.17;51.67;;;9.00;99.90;;;;;;5012163;28;20441;-72
2022/11/29 08:13:59;;;;;;;167.32;48.78;;;9.10;99.90;;;;;;5012667;28;20789;-72
2022/11/29 08:16:25;;;;;;;187.38;54.03;;;9.10;99.90;;;;;;5013260;28;20436;-73
2022/11/29 08:18:50;;;;;;;203.45;54.85;;;9.10;99.90;;;;;;5012862;28;20453;-73
2022/11/29 08:21:17;;;;;;;189.15;54.33;;;9.00;99.90;;;;;;5012882;28;20392;-73
2022/11/29 08:23:43;;;;;;;195.27;54.20;;;9.10;99.90;;;;;;5014492;28;20432;-73
2022/11/29 08:26:09;;;;;;;183.45;51.97;;;9.10;99.90;;;;;;5017469;28;20949;-73
2022/11/29 08:28:35;;;;;;;191.23;51.07;;;9.20;99.90;;;;;;5018051;28;20423;-72
2022/11/29 08:31:02;;;;;;;186.27;50.10;;;9.20;99.90;;;;;;5012923;28;20857;-74
2022/11/29 08:33:28;;;;;;;193.43;52.25;;;9.20;99.90;;;;;;5018767;28;20405;-73
2022/11/29 08:35:53;;;;;;;184.05;52.83;;;9.20;99.90;;;;;;5013314;28;20438;-73
2022/11/29 08:38:19;;;;;;;194.73;54.73;;;9.10;99.90;;;;;;5013390;28;20769;-74
2022/11/29 08:40:44;;;;;;;192.75;54.03;;;9.20;99.90;;;;;;5012767;28;20422;-73
2022/11/29 08:43:10;;;;;;;194.27;55.78;;;9.30;99.90;;;;;;5011707;28;20468;-73
2022/11/29 08:45:35;;;;;;;175.50;56.08;;;9.30;99.90;;;;;;5012631;28;20401;-72
2022/11/29 08:48:01;;;;;;;180.10;55.25;;;9.40;99.90;;;;;;5011969;28;20392;-73
2022/11/29 08:50:27;;;;;;;168.98;52.47;;;9.40;99.90;;;;;;5011996;28;20928;-73
2022/11/29 08:55:41;;;;;;;163.52;52.50;;;9.40;99.90;;;;;;5013148;28;20395;-74
2022/11/29 08:58:09;;;;;;;173.77;50.33;;;9.30;99.90;;;;;;5012292;28;20369;-73
2022/11/29 09:00:36;;;;;;;178.90;56.88;;;9.20;99.90;;;;;;5011589;28;20405;-72
2022/11/29 09:05:48;;;;;;;168.25;50.95;;;9.30;99.90;;;;;;5011963;28;20471;-72
2022/11/29 09:08:14;;;;;;;180.43;50.35;;;9.30;99.90;;;;;;5011380;28;20475;-73
2022/11/29 09:10:40;;;;;;;169.07;51.63;;;9.20;99.90;;;;;;5011852;28;20424;-73
2022/11/29 09:13:08;;;;;;;172.32;49.63;;;9.20;99.90;;;;;;5010715;28;20399;-72
2022/11/29 09:15:35;;;;;;;170.40;51.50;;;9.20;99.90;;;;;;5011711;28;20443;-71
2022/11/29 09:18:00;;;;;;;165.43;49.08;;;9.30;99.90;;;;;;5011501;28;20392;-72
2022/11/29 09:20:26;;;;;;;154.80;47.33;;;9.40;99.90;;;;;;5011073;28;20882;-71
2022/11/29 09:22:52;;;;;;;170.93;48.58;;;9.40;99.90;;;;;;5010850;28;20385;-72
2022/11/29 09:25:17;;;;;;;167.13;49.13;;;9.40;99.90;;;;;;5011234;28;20389;-74
2022/11/29 09:27:43;;;;;;;174.85;49.88;;;9.40;99.90;;;;;;5011109;28;20389;-72
2022/11/29 09:30:09;;;;;;;176.63;51.20;;;9.50;99.90;;;;;;5011175;28;20385;-72
2022/11/29 09:32:34;;;;;;;166.68;51.38;;;9.60;99.90;;;;;;5010537;28;20838;-72
2022/11/29 09:35:00;;;;;;;160.37;48.93;;;9.60;99.90;;;;;;5011504;28;20388;-73
2022/11/29 09:37:25;;;;;;;160.93;46.70;;;9.70;96.20;;;;;;5010892;28;20887;-73
2022/11/29 09:39:51;;;;;;;164.33;52.30;;;9.70;94.60;;;;;;5010968;28;20449;-73
2022/11/29 09:42:41;;;;;;;167.27;51.53;;;9.70;95.30;;;;;;5010355;28;20414;-74
2022/11/29 09:45:18;;;;;;;163.23;49.50;;;9.80;95.20;;;;;;5009792;28;20892;-73
2022/11/29 09:47:50;;;;;;;154.90;46.40;;;9.80;92.50;;;;;;5012414;28;20389;-73
2022/11/29 09:50:27;;;;;;;149.05;47.13;;;9.80;90.90;;;;;;5011537;28;20392;-72
2022/11/29 09:53:31;;;;;;;155.30;48.70;;;9.80;91.70;;;;;;5010200;28;20442;-73
2022/11/29 09:56:24;;;;;;;137.45;45.75;;;9.90;94.80;;;;;;5010942;28;20730;-73
2022/11/29 09:59:06;;;;;;;144.13;44.92;;;9.90;94.30;;;;;;5011140;28;20446;-72
2022/11/29 10:01:38;;;;;;;139.13;44.67;;;10.10;92.80;;;;;;5011292;28;20420;-73
2022/11/29 10:04:11;;;;;;;147.73;44.92;;;10.10;96.60;;;;;;5011197;28;20476;-73
2022/11/29 10:06:48;;;;;;;131.27;41.72;;;10.20;95.30;;;;;;5012495;28;20377;-73
2022/11/29 10:09:21;;;;;;;132.00;42.00;;;10.30;95.00;;;;;;5013126;28;20388;-73
2022/11/29 10:11:55;;;;;;;128.70;39.58;;;10.30;92.10;;;;;;5013837;28;20395;-73
2022/11/29 10:14:25;;;;;;;124.82;39.75;;;10.40;92.00;;;;;;5021422;28;20472;-72
2022/11/29 10:17:03;;;;;;;122.33;37.40;;;10.50;90.20;;;;;;5025621;28;20485;-72
2022/11/29 10:19:50;;;;;;;121.75;37.53;;;10.50;88.30;;;;;;5018626;28;20439;-71
2022/11/29 10:22:37;;;;;;;117.63;39.38;;;10.30;88.90;;;;;;5015812;28;20380;-71
2022/11/29 10:25:07;;;;;;;134.00;40.17;;;10.20;92.90;;;;;;5011738;28;20428;-75
2022/11/29 10:27:34;;;;;;;127.07;40.63;;;10.10;95.20;;;;;;5009831;28;21292;-74
2022/11/29 10:30:01;;;;;;;125.13;37.75;;;10.10;96.30;;;;;;5009739;28;20460;-72
2022/11/29 10:32:30;;;;;;;144.80;42.22;;;10.00;96.40;;;;;;5009896;28;20400;-72
2022/11/29 10:34:59;;;;;;;113.53;39.05;;;10.00;99.90;;;;;;5014222;28;20406;-71
2022/11/29 10:37:25;;;;;;;133.30;38.45;;;10.00;98.80;;;;;;5014462;28;20391;-72
2022/11/29 10:39:59;;;;;;;118.40;39.42;;;9.90;99.40;;;;;;5014386;28;20988;-71
2022/11/29 10:45:33;;;;;;;126.47;40.38;;;9.90;99.80;;;;;;5014516;28;20460;-71
2022/11/29 10:48:16;;;;;;;121.38;39.28;;;9.90;99.10;;;;;;5014302;28;20431;-73
2022/11/29 10:50:44;;;;;;;131.45;40.67;;;9.90;98.80;;;;;;5012902;28;20451;-72
2022/11/29 10:53:13;;;;;;;118.63;39.22;;;10.00;99.40;;;;;;5012686;28;20389;-72
2022/11/29 10:55:45;;;;;;;129.85;39.85;;;10.00;98.50;;;;;;5013008;28;20420;-73
2022/11/29 10:58:15;;;;;;;123.80;41.78;;;10.00;99.70;;;;;;5012732;28;20451;-72
2022/11/29 11:00:51;;;;;;;114.70;40.72;;;10.10;98.90;;;;;;5018502;28;20486;-72
2022/11/29 11:03:34;;;;;;;117.05;38.95;;;10.10;95.90;;;;;;5019225;28;20385;-72
2022/11/29 11:06:04;;;;;;;121.20;38.75;;;10.20;92.20;;;;;;5015462;28;20889;-72
2022/11/29 11:08:32;;;;;;;114.43;39.77;;;10.10;92.50;;;;;;5013693;28;20445;-72
2022/11/29 11:10:58;;;;;;;118.00;41.00;;;10.10;93.10;;;;;;5013304;28;20385;-74
2022/11/29 11:13:27;;;;;;;110.45;38.60;;;10.20;91.50;;;;;;5013664;28;20389;-72
2022/11/29 11:16:14;;;;;;;122.15;41.90;;;10.20;89.60;;;;;;5012530;28;20389;-72
2022/11/29 11:18:40;;;;;;;128.80;42.65;;;10.10;90.80;;;;;;5012351;28;20744;-72
2022/11/29 11:21:11;;;;;;;130.68;43.10;;;10.10;93.00;;;;;;5013125;28;20419;-72
2022/11/29 11:23:52;;;;;;;136.73;45.50;;;10.10;93.70;;;;;;5013250;28;20385;-73
2022/11/29 11:26:18;;;;;;;129.98;46.55;;;10.00;96.80;;;;;;5013007;28;20380;-73
2022/11/29 11:28:58;;;;;;;139.70;46.43;;;9.90;99.80;;;;;;5013789;28;20385;-72
2022/11/29 11:31:32;;;;;;;126.55;45.78;;;9.90;99.90;;;;;;5013440;28;20424;-72
2022/11/29 11:34:21;;;;;;;100.25;39.90;;;10.20;99.90;;;;;;5012954;28;20393;-72
2022/11/29 11:36:46;;;;;;;115.50;39.92;;;10.40;90.90;;;;;;5012396;28;20754;-71
2022/11/29 11:39:20;;;;;;;106.37;40.20;;;10.40;86.90;;;;;;5013106;28;20381;-73
2022/11/29 11:44:48;;;;;;;118.70;41.53;;;10.40;87.00;;;;;;5013373;28;20434;-72
2022/11/29 11:47:31;;;;;;;121.65;45.13;;;10.20;91.30;;;;;;5012699;28;20381;-73
2022/11/29 11:50:02;;;;;;;130.30;45.35;;;10.00;95.30;;;;;;5012816;28;20389;-72
2022/11/29 11:52:30;;;;;;;128.20;43.75;;;10.00;98.30;;;;;;5012382;28;20779;-72
2022/11/29 11:55:00;;;;;;;106.95;40.15;;;10.00;96.80;;;;;;5012749;28;20539;-73
2022/11/29 11:57:27;;;;;;;104.15;39.47;;;10.00;96.10;;;;;;5012676;28;20385;-73
2022/11/29 11:59:55;;;;;;;112.22;40.95;;;9.90;96.10;;;;;;5020011;28;20423;-73
2022/11/29 12:02:38;;;;;;;102.70;39.83;;;10.00;96.40;;;;;;5014459;28;20390;-74
2022/11/29 12:05:12;;;;;;;101.10;39.60;;;10.20;94.30;;;;;;5013626;28;20376;-73
2022/11/29 12:07:53;;;;;;;102.43;40.08;;;10.20;92.50;;;;;;5012685;28;20392;-72
2022/11/29 12:10:28;;;;;;;102.38;39.20;;;10.10;90.30;;;;;;5012746;28;20691;-74
2022/11/29 12:12:56;;;;;;;100.75;38.22;;;10.10;91.20;;;;;;5011661;28;20407;-72
2022/11/29 12:15:40;;;;;;;90.30;35.77;;;10.50;87.20;;;;;;5012313;28;20458;-72
2022/11/29 12:18:11;;;;;;;87.47;37.05;;;10.90;80.90;;;;;;5012055;28;20823;-72
2022/11/29 12:21:04;;;;;;;100.57;38.92;;;10.80;79.80;;;;;;5012241;28;20428;-72
2022/11/29 12:23:29;;;;;;;91.55;39.50;;;10.70;83.30;;;;;;5012275;28;20467;-72
2022/11/29 12:26:13;;;;;;;92.20;36.03;;;10.70;80.20;;;;;;5012286;28;20500;-73
2022/11/29 12:28:40;;;;;;;89.72;37.47;;;10.90;77.00;;;;;;5013475;28;20385;-73
2022/11/29 12:31:54;;;;;;;97.10;38.60;;;11.00;74.20;;;;;;5011583;28;20396;-73
2022/11/29 12:34:38;;;;;;;93.45;37.50;;;11.00;75.50;;;;;;5008289;28;20401;-73
2022/11/29 12:37:44;;;;;;;98.38;38.13;;;10.90;75.50;;;;;;5012150;28;20381;-73
2022/11/29 12:40:31;;;;;;;93.47;37.33;;;10.80;76.90;;;;;;4996799;28;20460;-72
2022/11/29 12:43:41;;;;;;;96.05;38.22;;;10.80;77.00;;;;;;5011883;28;20464;-73
2022/11/29 12:46:24;;;;;;;88.90;35.35;;;10.90;77.60;;;;;;5000232;28;20408;-75
2022/11/29 12:49:22;;;;;;;92.57;37.10;;;10.90;77.10;;;;;;5012173;28;20421;-73
2022/11/29 12:52:10;;;;;;;95.45;37.92;;;11.00;77.00;;;;;;4992194;28;20445;-75
2022/11/29 12:55:07;;;;;;;92.03;36.92;;;11.00;76.60;;;;;;4991174;28;20433;-74
2022/11/29 12:58:03;;;;;;;97.95;36.80;;;10.90;76.00;;;;;;4996420;28;20387;-75
2022/11/29 13:00:39;;;;;;;89.57;36.75;;;10.80;76.40;;;;;;5011700;28;20517;-75
2022/11/29 13:03:07;;;;;;;98.97;37.85;;;10.60;79.40;;;;;;5011172;28;20416;-74
2022/11/29 13:06:06;;;;;;;95.43;38.17;;;10.50;81.00;;;;;;5012110;28;20408;-74
2022/11/29 13:08:59;;;;;;;100.78;39.75;;;10.50;83.00;;;;;;5012161;28;20539;-74
2022/11/29 13:11:33;;;;;;;93.18;39.58;;;10.60;83.70;;;;;;5012035;28;20400;-75
2022/11/29 13:14:11;;;;;;;96.22;39.92;;;10.60;81.80;;;;;;5016707;28;20432;-73
2022/11/29 13:16:52;;;;;;;103.80;41.17;;;10.70;82.00;;;;;;5032813;28;20406;-72
2022/11/29 13:19:36;;;;;;;102.03;39.25;;;10.70;81.10;;;;;;5001215;28;20419;-74
2022/11/29 13:22:13;;;;;;;101.85;39.17;;;10.60;81.00;;;;;;5011231;28;20384;-74
2022/11/29 13:24:44;;;;;;;100.95;39.00;;;10.50;83.50;;;;;;5014124;28;20389;-75
2022/11/29 13:27:26;;;;;;;114.32;42.17;;;10.30;86.70;;;;;;5012275;28;20488;-74